Latest Weather Observations for Rolleston Airport

IDQ60801

Issued at 6:32 am EST Tuesday 3 March 2015 (issued every 30 minutes, with the page automatically refreshed every 10 minutes)

About weather observations | Map of weather stations | Latest weather observations for QLD | Other Formats
Station Details ID: 035129 Name: ROLLESTON AIRPORT Lat: -24.46 Lon: 148.63 Height: 219.45 m
Data from the previous 72 hours. | See also: Recent months at Rolleston Airport
Date/Time
EST
Temp
°C
App
Temp
°C
Dew
Point
Rel
Hum
%
Delta-T
°C
Wind Press
QNH
hPa
Press
MSL
hPa
Rain
since 9 am
mm
Dir
 
Spd
km/h
Gust
km/h
Spd
kts
Gust
kts
03/06:30am 22.5 25.4 20.6 89 1.2 SE 6 7 3 4 1015.0 1013.7 0.0
03/06:00am 22.3 25.5 19.8 86 1.6 SE 2 2 1 1 1014.7 1013.4 0.0
03/05:30am 22.4 25.3 19.9 86 1.6 SSE 4 6 2 3 1014.5 1013.2 0.0
03/05:00am 22.6 25.7 19.6 83 1.9 ESE 2 4 1 2 1014.0 1012.7 0.0
03/04:30am 23.1 26.5 20.1 83 2.0 E 2 4 1 2 1013.7 1012.4 0.0
03/04:00am 23.2 26.4 19.8 81 2.2 ESE 2 4 1 2 1013.9 1012.6 0.0
03/03:30am 24.1 26.7 20.0 78 2.7 E 6 7 3 4 1013.8 1012.5 0.0
03/03:00am 23.8 26.8 20.1 80 2.4 ESE 4 6 2 3 1013.7 1012.4 0.0
03/02:30am 24.2 27.2 20.1 78 2.7 E 4 6 2 3 1013.4 1012.1 0.0
03/02:00am 24.8 27.9 20.3 76 3.0 NNE 4 6 2 3 1013.6 1012.3 0.0
03/01:30am 25.4 27.9 20.2 73 3.4 ENE 7 15 4 8 1013.6 1012.3 0.0
03/01:00am 25.7 27.1 20.3 72 3.6 ENE 13 19 7 10 1013.4 1012.1 0.0
03/12:30am 25.8 28.0 20.4 72 3.6 ENE 9 13 5 7 1013.4 1012.1 0.0
03/12:00am 26.0 27.0 20.3 71 3.8 NE 15 22 8 12 1013.3 1012.0 0.0
 
Date/Time
EST
Temp
°C
App
Temp
°C
Dew
Point
Rel
Hum
%
Delta-T
°C
Wind Press
QNH
hPa
Press
MSL
hPa
Rain
since 9 am
mm
Dir
 
Spd
km/h
Gust
km/h
Spd
kts
Gust
kts
02/11:30pm 26.4 27.1 20.5 70 3.9 ENE 17 26 9 14 1013.1 1011.8 0.0
02/11:00pm 27.0 27.9 20.1 66 4.5 NE 15 22 8 12 1012.8 1011.5 0.0
02/10:30pm 27.8 28.7 20.1 63 5.1 NE 15 24 8 13 1012.5 1011.2 0.0
02/10:00pm 28.6 30.1 19.8 59 5.8 ENE 11 15 6 8 1011.9 1010.6 0.0
02/09:30pm 29.1 31.5 19.7 57 6.2 NE 6 11 3 6 1011.6 1010.4 0.0
02/09:00pm 29.1 30.8 19.4 55 6.4 ENE 9 13 5 7 1011.2 1010.0 0.0
02/08:30pm 30.0 31.5 19.7 54 6.8 E 11 15 6 8 1010.8 1009.5 0.0
02/08:00pm 30.9 31.1 19.3 50 7.6 E 17 24 9 13 1010.4 1009.1 0.0
02/07:30pm 31.5 31.4 18.8 46 8.3 ENE 17 22 9 12 1009.9 1008.6 0.0
02/07:00pm 32.1 33.0 18.3 44 9.0 ENE 11 15 6 8 1009.6 1008.3 0.0
02/06:30pm 32.3 33.3 17.7 41 9.5 ESE 9 13 5 7 1009.1 1007.8 0.0
02/06:00pm 33.4 33.7 17.1 37 10.5 SE 11 15 6 8 1008.8 1007.5 0.0
02/05:30pm 34.6 34.6 17.3 35 11.2 SE 13 19 7 10 1008.4 1007.1 0.0
02/05:00pm 34.8 34.0 17.1 35 11.5 SSE 17 22 9 12 1008.2 1006.9 0.0
02/04:30pm 35.3 35.3 18.0 36 11.3 ESE 15 20 8 11 1008.0 1006.7 0.0
02/04:00pm 36.3 36.2 18.8 35 11.6 ESE 17 28 9 15 1007.8 1006.5 0.0
02/03:30pm 35.0 34.6 18.1 36 11.1 ESE 17 26 9 14 1007.9 1006.6 0.0
02/03:00pm 36.0 36.8 18.1 34 11.8 E 11 20 6 11 1007.9 1006.6 0.0
02/02:30pm 35.2 36.1 18.3 36 11.1 SE 11 24 6 13 1008.1 1006.8 0.0
02/02:00pm 35.9 37.2 18.5 36 11.5 E 9 24 5 13 1008.6 1007.3 0.0
02/01:30pm 34.5 36.6 19.3 40 10.1 SE 7 17 4 9 1009.1 1007.8 0.0
02/01:00pm 33.9 35.9 19.2 42 9.8 SE 7 15 4 8 1009.8 1008.5 0.0
02/12:30pm 33.8 36.1 19.8 43 9.4 N 7 17 4 9 1010.4 1009.1 0.0
02/12:00pm 33.8 37.0 20.6 46 8.9 NE 4 13 2 7 1011.1 1009.9 0.0
02/11:30am 32.3 34.8 19.9 48 8.3 NNE 6 9 3 5 1011.4 1010.2 0.0
02/11:00am 31.6 34.1 19.9 50 7.8 NNW 6 13 3 7 1011.9 1010.6 0.0
02/10:30am 31.6 34.9 20.8 52 7.3 NNW 4 11 2 6 1012.1 1010.8 0.0
02/10:00am 30.6 33.4 20.8 56 6.6 NNW 7 13 4 7 1012.3 1011.0 0.0
02/09:30am 29.1 31.5 20.8 61 5.6 N 9 17 5 9 1012.5 1011.2 0.0
02/09:00am 28.6 30.8 20.3 60 5.5 NNE 9 15 5 8 1012.6 1011.3 0.0
02/08:30am 27.8 30.1 20.6 65 4.8 N 9 15 5 8 1012.5 1011.2 0.0
02/08:00am 27.0 29.9 21.1 70 3.9 N 7 11 4 6 1012.5 1011.2 0.0
02/07:30am 25.9 28.8 21.1 75 3.2 N 7 9 4 5 1012.2 1010.9 0.0
02/07:00am 24.9 28.7 21.0 79 2.6 NNE 2 6 1 3 1011.9 1010.6 0.0
02/06:30am 23.6 27.8 20.9 85 1.8 CALM 0 0 0 0 1011.6 1010.4 0.0
02/06:00am 23.7 27.3 21.2 86 1.7 NNE 4 4 2 2 1010.9 1009.6 0.0
02/05:30am 23.6 27.8 20.9 85 1.8 CALM 0 4 0 2 1010.3 1009.0 0.0
02/05:00am 23.6 27.3 20.7 84 1.9 NNW 2 2 1 1 1009.9 1008.6 0.0
02/04:30am 23.6 27.7 20.7 84 1.9 CALM 0 0 0 0 1009.5 1008.2 0.0
02/04:00am 23.8 27.1 20.7 83 2.0 NNW 4 6 2 3 1009.3 1008.0 0.0
02/03:30am 23.7 27.9 21.0 85 1.8 CALM 0 0 0 0 1009.0 1007.7 0.0
02/03:00am 23.3 26.8 20.4 84 1.9 NW 2 7 1 4 1008.7 1007.4 0.0
02/02:30am 24.0 28.3 21.1 84 1.9 CALM 0 0 0 0 1009.0 1007.7 0.0
02/02:00am 24.0 27.6 21.3 85 1.8 NW 4 6 2 3 1008.9 1007.6 0.0
02/01:30am 24.4 28.7 21.1 82 2.2 CALM 0 4 0 2 1009.2 1007.9 0.0
02/01:00am 24.5 27.6 21.4 83 2.1 SE 7 9 4 5 1009.2 1007.9 0.0
02/12:30am 24.8 27.8 21.3 81 2.3 SSE 7 7 4 4 1009.2 1007.9 0.0
02/12:00am 24.8 27.8 21.3 81 2.3 SSE 7 9 4 5 1009.1 1007.8 0.0
 
Date/Time
EST
Temp
°C
App
Temp
°C
Dew
Point
Rel
Hum
%
Delta-T
°C
Wind Press
QNH
hPa
Press
MSL
hPa
Rain
since 9 am
mm
Dir
 
Spd
km/h
Gust
km/h
Spd
kts
Gust
kts
01/11:30pm 26.0 29.8 21.7 77 2.9 SSE 4 6 2 3 1009.1 1007.8 0.0
01/11:00pm 26.8 30.3 21.8 74 3.4 SSE 6 9 3 5 1009.0 1007.7 0.0
01/10:30pm 27.5 30.5 21.3 69 4.2 ESE 7 9 4 5 1008.9 1007.6 0.0
01/10:00pm 28.3 30.6 21.3 65 4.7 ENE 11 15 6 8 1008.7 1007.4 0.0
01/09:30pm 26.6 29.0 22.2 77 3.0 E 13 19 7 10 1008.8 1007.5 0.0
01/09:00pm 26.9 28.1 21.4 72 3.7 SSE 17 26 9 14 1009.2 1007.9 0.0
01/08:30pm 30.2 31.6 20.4 55 6.5 ESE 13 17 7 9 1009.0 1007.7 0.0
01/08:00pm 30.5 32.3 20.4 54 6.8 ESE 11 15 6 8 1008.4 1007.1 0.0
01/07:30pm 31.0 34.6 19.7 51 7.5 CALM 0 2 0 1 1007.9 1006.6 0.0
01/07:00pm 31.5 34.8 19.2 48 8.1 CALM 0 2 0 1 1007.3 1006.0 0.0
01/06:30pm 32.5 35.2 18.7 44 9.1 WNW 2 4 1 2 1006.4 1005.1 0.0
01/06:00pm 33.2 36.4 18.9 42 9.4 CALM 0 0 0 0 1006.1 1004.8 0.0
01/05:30pm 33.4 35.6 18.3 40 9.9 W 4 6 2 3 1006.7 1005.4 0.0
01/05:00pm 34.6 36.4 18.2 37 10.8 NW 6 11 3 6 1006.4 1005.1 0.0
01/04:30pm 34.8 36.1 19.2 39 10.4 NW 11 19 6 10 1006.0 1004.7 0.0
01/04:00pm 34.2 35.2 18.7 40 10.2 NW 11 22 6 12 1006.0 1004.7 0.0
01/03:30pm 34.2 34.8 18.7 40 10.2 W 13 20 7 11 1006.4 1005.1 0.0
01/03:00pm 34.6 35.6 19.4 40 10.1 WNW 13 22 7 12 1006.7 1005.4 0.0
01/02:30pm 33.8 35.0 18.3 39 10.1 NW 9 17 5 9 1007.0 1005.8 0.0
01/02:00pm 34.7 36.3 19.9 42 9.9 NW 11 22 6 12 1007.5 1006.2 0.0
01/01:30pm 33.8 35.7 19.8 43 9.4 NNW 9 17 5 9 1007.9 1006.6 0.0
01/01:00pm 32.5 33.4 18.3 43 9.3 NW 11 20 6 11 1008.5 1007.2 0.0
01/12:30pm 33.2 35.2 20.0 45 8.8 NNW 9 20 5 11 1009.0 1007.7 0.0
01/12:00pm 31.8 33.1 19.4 47 8.2 NNW 11 30 6 16 1009.7 1008.4 0.0
01/11:30am 31.3 32.6 19.3 49 7.9 NNW 11 22 6 12 1010.3 1009.0 0.0
01/11:00am 30.6 32.0 19.6 51 7.3 N 11 22 6 12 1010.8 1009.5 0.0
01/10:30am 30.0 31.0 19.4 53 7.0 N 13 22 7 12 1011.2 1010.0 0.0
01/10:00am 28.6 29.5 19.2 56 6.1 N 13 20 7 11 1011.4 1010.2 0.0
01/09:30am 28.9 30.7 20.4 60 5.6 NNW 11 20 6 11 1011.5 1010.1 0.0
01/09:00am 27.3 29.0 20.1 64 4.7 N 11 22 6 12 1011.5 1010.1 0.0
01/08:30am 26.9 28.5 20.7 69 4.1 NNW 13 20 7 11 1011.5 1010.1 0.0
01/08:00am 25.9 27.4 20.5 72 3.6 NNW 13 20 7 11 1011.3 1009.9 0.0
01/07:30am 25.0 27.2 20.3 75 3.1 N 9 13 5 7 1011.0 1009.6 0.0
01/07:00am 24.6 27.3 20.3 77 2.8 N 6 7 3 4 1010.6 1009.2 0.0
01/06:30am 23.3 26.8 20.4 84 1.9 N 2 4 1 2 1010.4 1009.0 0.0
01/06:00am 22.6 25.1 19.9 85 1.8 NNW 6 6 3 3 1009.9 1008.5 0.0
01/05:30am 23.1 25.7 20.1 83 2.0 N 6 6 3 3 1009.4 1007.9 0.0
01/05:00am 23.5 26.4 19.8 80 2.4 N 4 6 2 3 1009.2 1007.7 0.0
01/04:30am 24.4 26.7 19.9 76 2.9 NNW 7 13 4 7 1009.1 1007.6 0.0
01/04:00am 24.4 25.9 19.7 75 3.1 NNW 11 17 6 9 1009.0 1007.5 0.0
01/03:30am 24.6 26.8 20.3 77 2.8 NNW 9 20 5 11 1008.8 1007.3 0.0
01/03:00am 25.0 27.4 20.9 78 2.7 NNW 9 15 5 8 1008.8 1007.3 0.0
01/02:30am 25.5 28.1 21.2 77 2.9 N 9 15 5 8 1008.8 1007.3 0.0
01/02:00am 25.8 28.4 21.2 76 3.1 N 9 15 5 8 1008.9 1007.4 0.0
01/01:30am 26.1 28.5 21.5 76 3.1 N 11 17 6 9 1009.1 1007.6 0.0
01/01:00am 26.1 29.2 21.5 76 3.1 N 7 13 4 7 1009.3 1007.8 0.0
01/12:30am 26.3 28.7 20.8 71 3.6 N 9 13 5 7 1009.4 1007.9 0.0
01/12:00am 26.6 29.2 20.4 69 4.1 N 7 11 4 6 1009.4 1007.9 0.0
 
Date/Time
EST
Temp
°C
App
Temp
°C
Dew
Point
Rel
Hum
%
Delta-T
°C
Wind Press
QNH
hPa
Press
MSL
hPa
Rain
since 9 am
mm
Dir
 
Spd
km/h
Gust
km/h
Spd
kts
Gust
kts
28/11:30pm 27.2 29.2 20.8 68 4.3 NNE 11 19 6 10 1009.3 1007.8 0.0
28/11:00pm 26.4 29.1 20.3 69 4.0 N 6 9 3 5 1009.1 1007.6 0.0
28/10:30pm 26.9 29.4 19.8 65 4.7 NNE 6 6 3 3 1008.8 1007.3 0.0
28/10:00pm 27.8 30.0 19.6 61 5.4 NE 7 11 4 6 1008.6 1007.1 0.0
28/09:30pm 28.0 30.3 19.5 60 5.6 NE 6 7 3 4 1008.8 1007.3 0.0
28/09:00pm 28.6 30.8 19.5 58 6.0 ENE 7 11 4 6 1008.5 1007.0 0.0
28/08:30pm 29.4 30.9 19.7 56 6.4 NE 11 17 6 9 1008.2 1006.7 0.0
28/08:00pm 29.9 31.1 19.9 55 6.6 NE 13 19 7 10 1007.7 1006.2 0.0
28/07:30pm 30.5 30.9 19.8 52 7.1 ENE 17 28 9 15 1007.0 1005.6 0.0
28/07:00pm 31.1 31.6 20.1 52 7.3 ENE 17 26 9 14 1006.3 1004.9 0.0
28/06:30pm 32.3 32.7 19.9 48 8.3 NE 17 24 9 13 1006.1 1004.7 0.0
28/06:00pm 33.7 34.7 19.4 43 9.5 ENE 13 20 7 11 1006.0 1004.6 0.0
28/05:30pm 34.1 35.3 18.2 39 10.4 NE 9 15 5 8 1005.7 1004.2 0.0
28/05:00pm 34.7 36.9 19.1 39 10.4 E 6 9 3 5 1005.6 1004.1 0.0
28/04:30pm 34.8 36.8 18.8 39 10.6 ENE 6 9 3 5 1005.4 1003.9 0.0
28/04:00pm 33.9 36.3 18.8 41 10.0 NNE 4 9 2 5 1005.6 1004.1 0.0
28/03:30pm 34.6 37.3 19.4 40 10.1 SW 4 7 2 4 1005.6 1004.1 0.0
28/03:00pm 33.9 36.3 19.6 43 9.6 NNW 6 15 3 8 1005.8 1004.4 0.0
28/02:30pm 34.5 36.7 19.7 41 9.9 NNE 7 15 4 8 1006.2 1004.8 0.0
28/02:00pm 33.6 35.1 19.7 44 9.3 ENE 11 19 6 10 1006.6 1005.2 0.0
28/01:30pm 33.4 34.6 19.8 44 9.1 NNE 13 24 7 13 1007.2 1005.7 0.0
28/01:00pm 33.4 36.2 20.5 46 8.7 NE 6 13 3 7 1007.6 1006.1 0.0
28/12:30pm 32.9 35.3 20.1 47 8.6 NNE 7 19 4 10 1008.1 1006.6 0.0
28/12:00pm 31.3 33.3 19.9 50 7.6 NE 9 19 5 10 1008.6 1007.1 0.0
28/11:30am 30.0 31.6 19.1 52 7.1 N 9 19 5 10 1009.1 1007.6 0.0
28/11:00am 29.4 31.5 19.4 55 6.6 NE 7 17 4 9 1009.9 1008.5 0.0
28/10:30am 28.7 30.7 19.9 59 5.8 NNE 9 20 5 11 1010.3 1008.9 0.0
28/10:00am 27.8 29.3 19.8 61 5.3 NNE 11 17 6 9 1010.6 1009.2 0.0
28/09:30am 26.9 28.5 20.0 66 4.5 N 11 17 6 9 1010.7 1009.3 0.0
28/09:00am 26.2 28.1 20.5 71 3.8 N 11 19 6 10 1010.9 1009.5 0.0
28/08:30am 25.8 27.3 20.6 73 3.4 NNW 13 19 7 10 1010.8 1009.4 0.0
28/08:00am 25.8 27.6 20.4 72 3.6 N 11 19 6 10 1010.6 1009.2 0.0
28/07:30am 25.1 27.1 20.8 77 2.8 NNE 11 15 6 8 1010.1 1008.7 0.0
28/07:00am 23.7 26.7 20.8 84 1.9 NNE 6 9 3 5 1009.9 1008.5 0.0

Other Formats:

Comma delimited format used in spreadsheet applications
http://www.bom.gov.au/fwo/IDQ60801/IDQ60801.94396.axf

JavaScript Object Notation format (JSON) in row-major order
http://www.bom.gov.au/fwo/IDQ60801/IDQ60801.94396.json